Ida, MI (48140)

3:54 AM EST on February 08, 2016 (GMT -0500)
Jackman near Morocco, Ida, MI | | Change Station
CLOSE
Current Station
Personal Weather Station
Location: Michigan, MI
Elevation: 643 ft
Nearby Weather Stations

Elev 643 ft 41.84 °N, 83.59 °W | Updated 54 seconds ago

Overcast
Overcast
37.0 °F
Feels Like 37 °F
N
2.7
Wind Variable Wind from SW
Gusts 3.2 mph

Today
High -- | Low -- °F
--% Chance of Precip.
Yesterday
High -- | Low -- °F
Precip. -- in
Pressure 29.64 in
Visibility 10.0 miles
Clouds Scattered Clouds 3000 ft
Overcast 5500 ft
Windchill 37 °F
Dew Point 33 °F
Humidity 85%
Rainfall 0.00 in
Snow Depth Not available.
7:39 AM 5:57 PM
Waning Crescent, 0% visible
METAR KTTF 080833Z AUTO 25006KT 10SM SCT030 OVC055 04/00 A2964 RMK AO2 T00350001
Pressure 29.64 in
Visibility 10.0 miles
Clouds Scattered Clouds 3000 ft
Overcast 5500 ft
Windchill 37 °F
Dew Point 33 °F
Humidity 85%
Rainfall 0.00 in
Snow Depth Not available.
7:39 AM 5:57 PM
Waning Crescent, 0% visible
METAR KTTF 080833Z AUTO 25006KT 10SM SCT030 OVC055 04/00 A2964 RMK AO2 T00350001

10-Day Weather Forecast

Almanac

Astronomy

Feb. 08, 2016 Rise Set
Actual Time
Civil Twilight
Nautical Twilight
Astronomical Twilight
Moon
Length of Visible Light
Length of Day
Tomorrow will be .
, % of the Moon is Illuminated

Today's Extremes

State Highs State Lows

Community

WunderPhotos

Upload Photos

1,891,412 photos uploaded!

WunderBlog® & News

Nearby

Air Quality

  Air Quality AQ Index Pollutant
Not available.

Snow Depth

Station Depth Elevation

Earthquake Activity

City Distance Mag. Time & Date
Minimum magnitude displayed is 2.5.

Coastal Water Temperatures

Place Temperature

Stations

Nearby Weather Stations

Station Location Temp. Windchill Dew Point Humidity Wind Precip. Elev Updated Type
                   

Watches & Warnings

There are currently no watches in effect.